createdAt,value
2023-02-28T06:59:00.390Z,1.40
2023-02-28T07:01:05.919Z,1.42
2023-02-28T07:03:10.761Z,1.45
2023-02-28T07:05:15.899Z,1.51
2023-02-28T07:07:20.932Z,1.50
2023-02-28T07:09:28.890Z,1.47
2023-02-28T07:11:33.826Z,1.49
2023-02-28T07:13:38.525Z,1.57
2023-02-28T07:15:44.340Z,1.65
2023-02-28T07:17:49.250Z,1.68
2023-02-28T07:19:53.977Z,1.73
2023-02-28T07:21:58.713Z,1.78
2023-02-28T07:24:03.645Z,1.86
2023-02-28T07:26:11.957Z,1.94
2023-02-28T07:28:16.835Z,2.05
2023-02-28T07:30:22.228Z,2.13
2023-02-28T07:32:27.415Z,2.23
2023-02-28T07:34:32.336Z,2.28
2023-02-28T07:36:37.248Z,2.37
2023-02-28T07:38:42.248Z,2.50
2023-02-28T07:40:47.052Z,2.64
2023-02-28T07:42:51.965Z,2.67
2023-02-28T07:44:56.646Z,2.72
2023-02-28T07:47:01.793Z,2.83
2023-02-28T07:49:06.950Z,2.94
2023-02-28T07:51:12.003Z,3.02
2023-02-28T07:53:16.802Z,3.14
2023-02-28T07:55:21.543Z,3.24
2023-02-28T07:57:26.610Z,3.30
2023-02-28T07:59:32.365Z,3.39
2023-02-28T08:01:37.331Z,3.39
2023-02-28T08:03:42.543Z,3.43
2023-02-28T08:05:47.558Z,3.50
2023-02-28T08:07:52.801Z,3.62
2023-02-28T08:09:57.569Z,3.68
2023-02-28T08:12:08.843Z,3.73
2023-02-28T08:14:13.593Z,3.80
2023-02-28T08:16:21.455Z,3.83
2023-02-28T08:18:26.712Z,3.81
2023-02-28T08:20:31.630Z,3.72
2023-02-28T08:22:36.332Z,3.68
2023-02-28T08:24:43.973Z,3.71
2023-02-28T08:26:48.762Z,3.78
2023-02-28T08:28:55.184Z,3.82
2023-02-28T08:31:01.345Z,3.89
2023-02-28T08:33:06.114Z,3.90
2023-02-28T08:35:12.157Z,3.82
2023-02-28T08:37:16.917Z,3.77
2023-02-28T08:39:21.702Z,3.78
2023-02-28T08:41:27.304Z,3.69
2023-02-28T08:43:32.288Z,3.64
2023-02-28T08:45:37.054Z,3.67
2023-02-28T08:47:42.137Z,3.78
2023-02-28T08:49:46.764Z,3.88
2023-02-28T08:51:51.650Z,3.89
2023-02-28T08:53:58.343Z,3.94
2023-02-28T08:56:06.245Z,4.02
2023-02-28T08:58:10.925Z,4.09
2023-02-28T09:00:17.483Z,4.12
2023-02-28T09:02:22.221Z,4.15
2023-02-28T09:04:27.001Z,4.11
2023-02-28T09:06:33.027Z,4.05
2023-02-28T09:08:37.767Z,3.98
2023-02-28T09:10:42.510Z,4.01
2023-02-28T09:12:47.297Z,4.10
2023-02-28T09:14:53.427Z,4.21
2023-02-28T09:16:58.973Z,4.33
2023-02-28T09:19:03.727Z,4.41
2023-02-28T09:21:13.000Z,4.48
2023-02-28T09:23:17.863Z,4.53
2023-02-28T09:25:22.552Z,4.58
2023-02-28T09:27:27.459Z,4.63
2023-02-28T09:29:32.394Z,4.58
2023-02-28T09:31:37.200Z,4.56
2023-02-28T09:33:42.024Z,4.60
2023-02-28T09:35:46.840Z,4.64
2023-02-28T09:37:52.373Z,4.69
2023-02-28T09:39:57.622Z,4.74
2023-02-28T09:42:05.174Z,4.75
2023-02-28T09:44:14.066Z,4.74
2023-02-28T09:46:30.586Z,4.71
2023-02-28T09:48:41.234Z,4.66
2023-02-28T09:50:50.668Z,4.67
2023-02-28T09:52:57.561Z,4.71
2023-02-28T09:55:19.474Z,4.69
2023-02-28T09:57:33.544Z,4.68
2023-02-28T09:59:52.673Z,4.72
2023-02-28T10:02:08.122Z,4.78
2023-02-28T10:04:18.547Z,4.79
2023-02-28T10:06:27.221Z,4.72
2023-02-28T10:08:37.504Z,4.60
2023-02-28T10:10:45.525Z,4.54
2023-02-28T10:12:53.864Z,4.45
2023-02-28T10:15:01.282Z,4.37
2023-02-28T10:17:12.044Z,4.32
2023-02-28T10:19:23.196Z,4.37
2023-02-28T10:21:33.267Z,4.41
2023-02-28T10:23:38.835Z,4.46
2023-02-28T10:25:47.124Z,4.58
2023-02-28T10:27:54.085Z,4.60
2023-02-28T10:30:00.772Z,4.64
2023-02-28T10:32:06.674Z,4.75
2023-02-28T10:34:14.482Z,4.89
2023-02-28T10:36:21.057Z,5.01
2023-02-28T10:38:28.120Z,5.11
2023-02-28T10:40:37.098Z,5.19
2023-02-28T10:42:41.880Z,5.29
2023-02-28T10:44:46.607Z,5.39
2023-02-28T10:46:53.843Z,5.39
2023-02-28T10:49:06.101Z,5.39
2023-02-28T10:51:13.346Z,5.48
2023-02-28T10:53:32.958Z,5.54
2023-02-28T10:55:40.159Z,5.51
2023-02-28T10:57:44.862Z,5.55
